sensor_id;sensor_type;location;lat;lon;timestamp;temperature;humidity
8780;DHT22;62328;51.19929245;4.42130175;2023-07-02T00:02:17;18.20;99.90
8780;DHT22;62328;51.19929245;4.42130175;2023-07-02T00:04:45;18.10;99.90
8780;DHT22;62328;51.19929245;4.42130175;2023-07-02T00:07:12;18.10;99.90
8780;DHT22;62328;51.19929245;4.42130175;2023-07-02T00:09:41;18.20;99.90
8780;DHT22;62328;51.19929245;4.42130175;2023-07-02T00:12:09;18.10;99.90
8780;DHT22;62328;51.19929245;4.42130175;2023-07-02T00:14:37;18.10;99.90
8780;DHT22;62328;51.19929245;4.42130175;2023-07-02T00:17:05;18.30;99.90
8780;DHT22;62328;51.19929245;4.42130175;2023-07-02T00:19:32;18.10;99.90
8780;DHT22;62328;51.19929245;4.42130175;2023-07-02T00:21:59;18.10;99.90
8780;DHT22;62328;51.19929245;4.42130175;2023-07-02T00:24:27;18.10;99.90
8780;DHT22;62328;51.19929245;4.42130175;2023-07-02T00:26:56;18.10;99.90
8780;DHT22;62328;51.19929245;4.42130175;2023-07-02T00:29:24;18.10;99.90
8780;DHT22;62328;51.19929245;4.42130175;2023-07-02T00:31:51;18.10;99.90
8780;DHT22;62328;51.19929245;4.42130175;2023-07-02T00:34:19;18.10;99.90
8780;DHT22;62328;51.19929245;4.42130175;2023-07-02T00:36:46;18.10;99.90
8780;DHT22;62328;51.19929245;4.42130175;2023-07-02T00:39:13;18.10;99.90
8780;DHT22;62328;51.19929245;4.42130175;2023-07-02T00:41:41;18.10;99.90
8780;DHT22;62328;51.19929245;4.42130175;2023-07-02T00:44:13;18.00;99.90
8780;DHT22;62328;51.19929245;4.42130175;2023-07-02T00:46:40;18.00;99.90
8780;DHT22;62328;51.19929245;4.42130175;2023-07-02T00:49:10;18.00;99.90
8780;DHT22;62328;51.19929245;4.42130175;2023-07-02T00:51:37;18.00;99.90
8780;DHT22;62328;51.19929245;4.42130175;2023-07-02T00:54:04;18.00;99.90
8780;DHT22;62328;51.19929245;4.42130175;2023-07-02T00:56:32;18.00;99.90
8780;DHT22;62328;51.19929245;4.42130175;2023-07-02T00:58:59;18.00;99.90
8780;DHT22;62328;51.19929245;4.42130175;2023-07-02T01:01:28;17.90;99.90
8780;DHT22;62328;51.19929245;4.42130175;2023-07-02T01:03:58;18.00;99.90
8780;DHT22;62328;51.19929245;4.42130175;2023-07-02T01:06:27;17.90;99.90
8780;DHT22;62328;51.19929245;4.42130175;2023-07-02T01:08:55;18.00;99.90
8780;DHT22;62328;51.19929245;4.42130175;2023-07-02T01:11:27;18.00;99.90
8780;DHT22;62328;51.19929245;4.42130175;2023-07-02T01:13:57;18.00;99.90
8780;DHT22;62328;51.19929245;4.42130175;2023-07-02T01:16:29;18.00;99.90
8780;DHT22;62328;51.19929245;4.42130175;2023-07-02T01:18:59;18.00;99.90
8780;DHT22;62328;51.19929245;4.42130175;2023-07-02T01:21:30;17.90;99.90
8780;DHT22;62328;51.19929245;4.42130175;2023-07-02T01:23:58;18.00;99.90
8780;DHT22;62328;51.19929245;4.42130175;2023-07-02T01:26:29;18.00;99.90
8780;DHT22;62328;51.19929245;4.42130175;2023-07-02T01:28:59;18.00;99.90
8780;DHT22;62328;51.19929245;4.42130175;2023-07-02T01:31:26;18.00;99.90
8780;DHT22;62328;51.19929245;4.42130175;2023-07-02T01:33:53;18.00;99.90
8780;DHT22;62328;51.19929245;4.42130175;2023-07-02T01:36:21;18.00;99.90
8780;DHT22;62328;51.19929245;4.42130175;2023-07-02T01:38:49;17.90;99.90
8780;DHT22;62328;51.19929245;4.42130175;2023-07-02T01:41:16;17.80;99.90
8780;DHT22;62328;51.19929245;4.42130175;2023-07-02T01:43:44;17.80;99.90
8780;DHT22;62328;51.19929245;4.42130175;2023-07-02T01:46:11;17.90;99.90
8780;DHT22;62328;51.19929245;4.42130175;2023-07-02T01:48:38;17.80;99.90
8780;DHT22;62328;51.19929245;4.42130175;2023-07-02T01:51:06;17.80;99.90
8780;DHT22;62328;51.19929245;4.42130175;2023-07-02T01:53:33;17.80;99.90
8780;DHT22;62328;51.19929245;4.42130175;2023-07-02T01:56:01;17.80;99.90
8780;DHT22;62328;51.19929245;4.42130175;2023-07-02T01:58:29;17.80;99.90
8780;DHT22;62328;51.19929245;4.42130175;2023-07-02T02:00:56;17.80;99.90
8780;DHT22;62328;51.19929245;4.42130175;2023-07-02T02:03:23;17.80;99.90
8780;DHT22;62328;51.19929245;4.42130175;2023-07-02T02:05:50;17.80;99.90
8780;DHT22;62328;51.19929245;4.42130175;2023-07-02T02:08:19;17.90;99.90
8780;DHT22;62328;51.19929245;4.42130175;2023-07-02T02:10:46;17.80;99.90
8780;DHT22;62328;51.19929245;4.42130175;2023-07-02T02:13:15;17.70;99.90
8780;DHT22;62328;51.19929245;4.42130175;2023-07-02T02:15:43;17.60;99.90
8780;DHT22;62328;51.19929245;4.42130175;2023-07-02T02:18:10;17.60;99.90
8780;DHT22;62328;51.19929245;4.42130175;2023-07-02T02:20:38;17.70;99.90
8780;DHT22;62328;51.19929245;4.42130175;2023-07-02T02:23:05;17.60;99.90
8780;DHT22;62328;51.19929245;4.42130175;2023-07-02T02:25:32;17.50;99.90
8780;DHT22;62328;51.19929245;4.42130175;2023-07-02T02:27:59;17.50;99.90
8780;DHT22;62328;51.19929245;4.42130175;2023-07-02T02:30:27;17.50;99.90
8780;DHT22;62328;51.19929245;4.42130175;2023-07-02T02:32:55;17.50;99.90
8780;DHT22;62328;51.19929245;4.42130175;2023-07-02T02:35:23;17.50;99.90
8780;DHT22;62328;51.19929245;4.42130175;2023-07-02T02:37:51;17.50;99.90
8780;DHT22;62328;51.19929245;4.42130175;2023-07-02T02:40:19;17.60;99.90
8780;DHT22;62328;51.19929245;4.42130175;2023-07-02T02:42:46;17.60;99.90
8780;DHT22;62328;51.19929245;4.42130175;2023-07-02T02:45:13;17.50;99.90
8780;DHT22;62328;51.19929245;4.42130175;2023-07-02T02:47:42;17.50;99.90
8780;DHT22;62328;51.19929245;4.42130175;2023-07-02T02:50:12;17.40;99.90
8780;DHT22;62328;51.19929245;4.42130175;2023-07-02T02:52:40;17.50;99.90
8780;DHT22;62328;51.19929245;4.42130175;2023-07-02T02:55:08;17.40;99.90
8780;DHT22;62328;51.19929245;4.42130175;2023-07-02T02:57:36;17.40;99.90
8780;DHT22;62328;51.19929245;4.42130175;2023-07-02T03:00:04;17.40;99.90
8780;DHT22;62328;51.19929245;4.42130175;2023-07-02T03:02:32;17.40;99.90
8780;DHT22;62328;51.19929245;4.42130175;2023-07-02T03:05:01;17.40;99.90
8780;DHT22;62328;51.19929245;4.42130175;2023-07-02T03:07:29;17.40;99.90
8780;DHT22;62328;51.19929245;4.42130175;2023-07-02T03:09:59;17.40;99.90
8780;DHT22;62328;51.19929245;4.42130175;2023-07-02T03:12:26;17.40;99.90
8780;DHT22;62328;51.19929245;4.42130175;2023-07-02T03:14:53;17.50;99.90
8780;DHT22;62328;51.19929245;4.42130175;2023-07-02T03:17:21;17.40;99.90
8780;DHT22;62328;51.19929245;4.42130175;2023-07-02T03:19:49;17.40;99.90
8780;DHT22;62328;51.19929245;4.42130175;2023-07-02T03:22:17;17.30;99.90
8780;DHT22;62328;51.19929245;4.42130175;2023-07-02T03:24:44;17.40;99.90
8780;DHT22;62328;51.19929245;4.42130175;2023-07-02T03:27:12;17.40;99.90
8780;DHT22;62328;51.19929245;4.42130175;2023-07-02T03:29:39;17.30;99.90
8780;DHT22;62328;51.19929245;4.42130175;2023-07-02T03:32:07;17.30;99.90
8780;DHT22;62328;51.19929245;4.42130175;2023-07-02T03:34:34;17.40;99.90
8780;DHT22;62328;51.19929245;4.42130175;2023-07-02T03:37:01;17.30;99.90
8780;DHT22;62328;51.19929245;4.42130175;2023-07-02T03:39:30;17.40;99.90
8780;DHT22;62328;51.19929245;4.42130175;2023-07-02T03:41:57;17.40;99.90
8780;DHT22;62328;51.19929245;4.42130175;2023-07-02T03:44:24;17.30;99.90
8780;DHT22;62328;51.19929245;4.42130175;2023-07-02T03:46:51;17.30;99.90
8780;DHT22;62328;51.19929245;4.42130175;2023-07-02T03:49:19;17.40;99.90
8780;DHT22;62328;51.19929245;4.42130175;2023-07-02T03:51:46;17.10;99.90
8780;DHT22;62328;51.19929245;4.42130175;2023-07-02T03:54:13;17.20;99.90
8780;DHT22;62328;51.19929245;4.42130175;2023-07-02T03:56:42;17.40;99.90
8780;DHT22;62328;51.19929245;4.42130175;2023-07-02T03:59:10;17.30;99.90
8780;DHT22;62328;51.19929245;4.42130175;2023-07-02T04:01:37;17.30;99.90
8780;DHT22;62328;51.19929245;4.42130175;2023-07-02T04:04:04;17.30;99.90
8780;DHT22;62328;51.19929245;4.42130175;2023-07-02T04:06:32;17.20;99.90
8780;DHT22;62328;51.19929245;4.42130175;2023-07-02T04:09:00;17.30;99.90
8780;DHT22;62328;51.19929245;4.42130175;2023-07-02T04:11:27;17.30;99.90
8780;DHT22;62328;51.19929245;4.42130175;2023-07-02T04:13:56;17.20;99.90
8780;DHT22;62328;51.19929245;4.42130175;2023-07-02T04:16:23;17.20;99.90
8780;DHT22;62328;51.19929245;4.42130175;2023-07-02T04:18:50;17.30;99.90
8780;DHT22;62328;51.19929245;4.42130175;2023-07-02T04:21:17;17.30;99.90
8780;DHT22;62328;51.19929245;4.42130175;2023-07-02T04:23:45;17.30;99.90
8780;DHT22;62328;51.19929245;4.42130175;2023-07-02T04:26:12;17.30;99.90
8780;DHT22;62328;51.19929245;4.42130175;2023-07-02T04:28:40;17.30;99.90
8780;DHT22;62328;51.19929245;4.42130175;2023-07-02T04:31:09;17.30;99.90
8780;DHT22;62328;51.19929245;4.42130175;2023-07-02T04:33:36;17.30;99.90
8780;DHT22;62328;51.19929245;4.42130175;2023-07-02T04:36:04;17.30;99.90
8780;DHT22;62328;51.19929245;4.42130175;2023-07-02T04:38:32;17.30;99.90
8780;DHT22;62328;51.19929245;4.42130175;2023-07-02T04:40:59;17.30;99.90
8780;DHT22;62328;51.19929245;4.42130175;2023-07-02T04:43:33;17.30;99.90
8780;DHT22;62328;51.19929245;4.42130175;2023-07-02T04:46:00;17.30;99.90
8780;DHT22;62328;51.19929245;4.42130175;2023-07-02T04:48:29;17.40;99.90
8780;DHT22;62328;51.19929245;4.42130175;2023-07-02T04:50:56;17.40;99.90
8780;DHT22;62328;51.19929245;4.42130175;2023-07-02T04:53:23;17.50;99.90
8780;DHT22;62328;51.19929245;4.42130175;2023-07-02T04:55:50;17.40;99.90
8780;DHT22;62328;51.19929245;4.42130175;2023-07-02T04:58:17;17.50;99.90
8780;DHT22;62328;51.19929245;4.42130175;2023-07-02T05:00:45;17.50;99.90
8780;DHT22;62328;51.19929245;4.42130175;2023-07-02T05:03:12;17.50;99.90
8780;DHT22;62328;51.19929245;4.42130175;2023-07-02T05:05:40;17.60;99.90
8780;DHT22;62328;51.19929245;4.42130175;2023-07-02T05:08:07;17.50;99.90
8780;DHT22;62328;51.19929245;4.42130175;2023-07-02T05:10:34;17.40;99.90
8780;DHT22;62328;51.19929245;4.42130175;2023-07-02T05:13:02;17.50;99.90
8780;DHT22;62328;51.19929245;4.42130175;2023-07-02T05:15:29;17.50;99.90
8780;DHT22;62328;51.19929245;4.42130175;2023-07-02T05:17:56;17.50;99.90
8780;DHT22;62328;51.19929245;4.42130175;2023-07-02T05:20:23;17.60;99.90
8780;DHT22;62328;51.19929245;4.42130175;2023-07-02T05:22:52;17.60;99.90
8780;DHT22;62328;51.19929245;4.42130175;2023-07-02T05:25:19;17.70;99.90
8780;DHT22;62328;51.19929245;4.42130175;2023-07-02T05:27:47;17.70;99.90
8780;DHT22;62328;51.19929245;4.42130175;2023-07-02T05:30:14;17.70;99.90
8780;DHT22;62328;51.19929245;4.42130175;2023-07-02T05:32:42;17.70;99.90
8780;DHT22;62328;51.19929245;4.42130175;2023-07-02T05:35:09;17.70;99.90
8780;DHT22;62328;51.19929245;4.42130175;2023-07-02T05:37:36;17.60;99.90
8780;DHT22;62328;51.19929245;4.42130175;2023-07-02T05:40:06;17.70;99.90
8780;DHT22;62328;51.19929245;4.42130175;2023-07-02T05:42:33;17.80;99.90
8780;DHT22;62328;51.19929245;4.42130175;2023-07-02T05:45:00;17.80;99.90
8780;DHT22;62328;51.19929245;4.42130175;2023-07-02T05:47:28;17.80;99.90
8780;DHT22;62328;51.19929245;4.42130175;2023-07-02T05:49:55;17.70;99.90
8780;DHT22;62328;51.19929245;4.42130175;2023-07-02T05:52:24;17.90;99.90
8780;DHT22;62328;51.19929245;4.42130175;2023-07-02T05:54:51;17.80;99.90
8780;DHT22;62328;51.19929245;4.42130175;2023-07-02T05:57:20;17.90;99.90
8780;DHT22;62328;51.19929245;4.42130175;2023-07-02T05:59:48;17.90;99.90
8780;DHT22;62328;51.19929245;4.42130175;2023-07-02T06:02:15;17.90;99.90
8780;DHT22;62328;51.19929245;4.42130175;2023-07-02T06:04:43;17.80;99.90
8780;DHT22;62328;51.19929245;4.42130175;2023-07-02T06:07:10;17.80;99.90
8780;DHT22;62328;51.19929245;4.42130175;2023-07-02T06:09:37;17.80;99.90
8780;DHT22;62328;51.19929245;4.42130175;2023-07-02T06:12:08;17.90;99.90
8780;DHT22;62328;51.19929245;4.42130175;2023-07-02T06:14:36;17.90;99.90
8780;DHT22;62328;51.19929245;4.42130175;2023-07-02T06:17:03;17.90;99.90
8780;DHT22;62328;51.19929245;4.42130175;2023-07-02T06:19:34;17.90;99.90
8780;DHT22;62328;51.19929245;4.42130175;2023-07-02T06:22:01;18.00;99.90
8780;DHT22;62328;51.19929245;4.42130175;2023-07-02T06:24:28;18.00;99.90
8780;DHT22;62328;51.19929245;4.42130175;2023-07-02T06:26:55;18.00;99.90
8780;DHT22;62328;51.19929245;4.42130175;2023-07-02T06:29:23;18.00;99.90
8780;DHT22;62328;51.19929245;4.42130175;2023-07-02T06:31:51;18.00;99.90
8780;DHT22;62328;51.19929245;4.42130175;2023-07-02T06:34:18;18.00;99.90
8780;DHT22;62328;51.19929245;4.42130175;2023-07-02T06:36:46;18.10;99.90
8780;DHT22;62328;51.19929245;4.42130175;2023-07-02T06:39:13;18.00;99.90
8780;DHT22;62328;51.19929245;4.42130175;2023-07-02T06:41:40;18.10;99.90
8780;DHT22;62328;51.19929245;4.42130175;2023-07-02T06:44:07;18.10;99.90
8780;DHT22;62328;51.19929245;4.42130175;2023-07-02T06:46:34;18.20;99.90
8780;DHT22;62328;51.19929245;4.42130175;2023-07-02T06:49:03;18.10;99.90
8780;DHT22;62328;51.19929245;4.42130175;2023-07-02T06:51:30;18.10;99.90
8780;DHT22;62328;51.19929245;4.42130175;2023-07-02T06:53:57;18.10;99.90
8780;DHT22;62328;51.19929245;4.42130175;2023-07-02T06:56:25;18.20;99.90
8780;DHT22;62328;51.19929245;4.42130175;2023-07-02T06:58:52;18.10;99.90
8780;DHT22;62328;51.19929245;4.42130175;2023-07-02T07:01:20;18.20;99.90
8780;DHT22;62328;51.19929245;4.42130175;2023-07-02T07:03:47;18.20;99.90
8780;DHT22;62328;51.19929245;4.42130175;2023-07-02T07:06:16;18.20;99.90
8780;DHT22;62328;51.19929245;4.42130175;2023-07-02T07:08:43;18.20;99.90
8780;DHT22;62328;51.19929245;4.42130175;2023-07-02T07:11:10;18.20;99.90
8780;DHT22;62328;51.19929245;4.42130175;2023-07-02T07:13:37;18.20;99.90
8780;DHT22;62328;51.19929245;4.42130175;2023-07-02T07:16:04;18.20;99.90
8780;DHT22;62328;51.19929245;4.42130175;2023-07-02T07:18:32;18.20;99.90
8780;DHT22;62328;51.19929245;4.42130175;2023-07-02T07:20:59;18.20;99.90
8780;DHT22;62328;51.19929245;4.42130175;2023-07-02T07:23:28;18.30;99.90
8780;DHT22;62328;51.19929245;4.42130175;2023-07-02T07:25:55;18.30;99.90
8780;DHT22;62328;51.19929245;4.42130175;2023-07-02T07:28:24;18.40;99.90
8780;DHT22;62328;51.19929245;4.42130175;2023-07-02T07:30:51;18.40;99.90
8780;DHT22;62328;51.19929245;4.42130175;2023-07-02T07:33:19;18.20;99.90
8780;DHT22;62328;51.19929245;4.42130175;2023-07-02T07:35:46;18.40;99.90
8780;DHT22;62328;51.19929245;4.42130175;2023-07-02T07:38:14;18.40;99.90
8780;DHT22;62328;51.19929245;4.42130175;2023-07-02T07:40:44;18.40;99.90
8780;DHT22;62328;51.19929245;4.42130175;2023-07-02T07:43:11;18.40;99.90
8780;DHT22;62328;51.19929245;4.42130175;2023-07-02T07:45:39;18.30;99.90
8780;DHT22;62328;51.19929245;4.42130175;2023-07-02T07:48:06;18.40;99.90
8780;DHT22;62328;51.19929245;4.42130175;2023-07-02T07:50:34;18.40;99.90
8780;DHT22;62328;51.19929245;4.42130175;2023-07-02T07:53:01;18.50;99.90
8780;DHT22;62328;51.19929245;4.42130175;2023-07-02T07:55:29;18.60;99.90
8780;DHT22;62328;51.19929245;4.42130175;2023-07-02T07:57:58;18.60;99.90
8780;DHT22;62328;51.19929245;4.42130175;2023-07-02T08:00:25;18.70;99.90
8780;DHT22;62328;51.19929245;4.42130175;2023-07-02T08:02:53;18.70;99.90
8780;DHT22;62328;51.19929245;4.42130175;2023-07-02T08:05:21;18.70;99.90
8780;DHT22;62328;51.19929245;4.42130175;2023-07-02T08:07:48;18.80;99.90
8780;DHT22;62328;51.19929245;4.42130175;2023-07-02T08:10:16;18.80;99.90
8780;DHT22;62328;51.19929245;4.42130175;2023-07-02T08:12:43;18.80;99.90
8780;DHT22;62328;51.19929245;4.42130175;2023-07-02T08:15:14;18.90;99.90
8780;DHT22;62328;51.19929245;4.42130175;2023-07-02T08:17:41;19.00;99.90
8780;DHT22;62328;51.19929245;4.42130175;2023-07-02T08:20:09;19.00;99.90
8780;DHT22;62328;51.19929245;4.42130175;2023-07-02T08:22:37;18.90;99.90
8780;DHT22;62328;51.19929245;4.42130175;2023-07-02T08:25:05;19.20;99.90
8780;DHT22;62328;51.19929245;4.42130175;2023-07-02T08:27:35;19.20;99.90
8780;DHT22;62328;51.19929245;4.42130175;2023-07-02T08:30:03;19.10;99.90
8780;DHT22;62328;51.19929245;4.42130175;2023-07-02T08:32:32;19.00;99.90
8780;DHT22;62328;51.19929245;4.42130175;2023-07-02T08:35:00;18.90;99.90
8780;DHT22;62328;51.19929245;4.42130175;2023-07-02T08:37:27;18.90;99.90
8780;DHT22;62328;51.19929245;4.42130175;2023-07-02T08:39:55;19.00;99.90
8780;DHT22;62328;51.19929245;4.42130175;2023-07-02T08:42:22;19.10;99.90
8780;DHT22;62328;51.19929245;4.42130175;2023-07-02T08:44:54;19.20;99.90
8780;DHT22;62328;51.19929245;4.42130175;2023-07-02T08:47:23;19.20;99.90
8780;DHT22;62328;51.19929245;4.42130175;2023-07-02T08:49:52;19.40;99.90
8780;DHT22;62328;51.19929245;4.42130175;2023-07-02T08:52:19;19.50;99.90
8780;DHT22;62328;51.19929245;4.42130175;2023-07-02T08:54:49;19.40;99.90
8780;DHT22;62328;51.19929245;4.42130175;2023-07-02T08:57:16;19.50;99.90
8780;DHT22;62328;51.19929245;4.42130175;2023-07-02T08:59:43;19.50;99.90
8780;DHT22;62328;51.19929245;4.42130175;2023-07-02T09:02:10;19.50;99.90
8780;DHT22;62328;51.19929245;4.42130175;2023-07-02T09:04:37;19.40;99.90
8780;DHT22;62328;51.19929245;4.42130175;2023-07-02T09:07:07;19.50;99.90
8780;DHT22;62328;51.19929245;4.42130175;2023-07-02T09:09:44;19.50;99.90
8780;DHT22;62328;51.19929245;4.42130175;2023-07-02T09:12:22;19.50;99.90
8780;DHT22;62328;51.19929245;4.42130175;2023-07-02T09:14:54;19.40;99.90
8780;DHT22;62328;51.19929245;4.42130175;2023-07-02T09:17:26;19.50;99.90
8780;DHT22;62328;51.19929245;4.42130175;2023-07-02T09:19:53;19.50;99.90
8780;DHT22;62328;51.19929245;4.42130175;2023-07-02T09:22:22;19.40;99.90
8780;DHT22;62328;51.19929245;4.42130175;2023-07-02T09:24:53;19.50;99.90
8780;DHT22;62328;51.19929245;4.42130175;2023-07-02T09:27:21;19.60;99.90
8780;DHT22;62328;51.19929245;4.42130175;2023-07-02T09:29:51;19.70;99.90
8780;DHT22;62328;51.19929245;4.42130175;2023-07-02T09:32:25;19.70;99.90
8780;DHT22;62328;51.19929245;4.42130175;2023-07-02T09:34:55;19.70;99.90
8780;DHT22;62328;51.19929245;4.42130175;2023-07-02T09:37:24;19.60;99.90
8780;DHT22;62328;51.19929245;4.42130175;2023-07-02T09:39:51;19.60;99.90
8780;DHT22;62328;51.19929245;4.42130175;2023-07-02T09:42:30;19.50;99.90
8780;DHT22;62328;51.19929245;4.42130175;2023-07-02T09:45:02;19.40;99.90
8780;DHT22;62328;51.19929245;4.42130175;2023-07-02T09:47:35;19.50;99.90
8780;DHT22;62328;51.19929245;4.42130175;2023-07-02T09:50:06;19.60;99.90
8780;DHT22;62328;51.19929245;4.42130175;2023-07-02T09:52:35;19.50;99.90
8780;DHT22;62328;51.19929245;4.42130175;2023-07-02T09:55:03;19.40;99.90
8780;DHT22;62328;51.19929245;4.42130175;2023-07-02T09:57:32;19.40;99.90
8780;DHT22;62328;51.19929245;4.42130175;2023-07-02T09:59:59;19.50;99.90
8780;DHT22;62328;51.19929245;4.42130175;2023-07-02T10:02:26;19.70;99.90
8780;DHT22;62328;51.19929245;4.42130175;2023-07-02T10:04:53;19.80;99.90
8780;DHT22;62328;51.19929245;4.42130175;2023-07-02T10:07:29;20.00;99.90
8780;DHT22;62328;51.19929245;4.42130175;2023-07-02T10:09:59;20.10;99.90
8780;DHT22;62328;51.19929245;4.42130175;2023-07-02T10:12:28;20.00;99.90
8780;DHT22;62328;51.19929245;4.42130175;2023-07-02T10:14:57;20.10;99.90
8780;DHT22;62328;51.19929245;4.42130175;2023-07-02T10:17:26;20.00;99.90
8780;DHT22;62328;51.19929245;4.42130175;2023-07-02T10:19:55;19.90;99.90
8780;DHT22;62328;51.19929245;4.42130175;2023-07-02T10:22:23;19.90;99.90
8780;DHT22;62328;51.19929245;4.42130175;2023-07-02T10:24:54;20.00;99.90
8780;DHT22;62328;51.19929245;4.42130175;2023-07-02T10:27:35;20.20;99.90
8780;DHT22;62328;51.19929245;4.42130175;2023-07-02T10:30:03;20.20;99.90
8780;DHT22;62328;51.19929245;4.42130175;2023-07-02T10:32:31;20.30;99.90
8780;DHT22;62328;51.19929245;4.42130175;2023-07-02T10:35:00;20.20;99.90
8780;DHT22;62328;51.19929245;4.42130175;2023-07-02T10:37:35;20.00;99.90
8780;DHT22;62328;51.19929245;4.42130175;2023-07-02T10:40:04;20.00;99.90
8780;DHT22;62328;51.19929245;4.42130175;2023-07-02T10:42:46;19.90;99.90
8780;DHT22;62328;51.19929245;4.42130175;2023-07-02T10:45:16;19.90;99.90
8780;DHT22;62328;51.19929245;4.42130175;2023-07-02T10:47:43;19.90;99.90
8780;DHT22;62328;51.19929245;4.42130175;2023-07-02T10:50:15;20.00;99.90
8780;DHT22;62328;51.19929245;4.42130175;2023-07-02T10:52:43;20.10;99.90
8780;DHT22;62328;51.19929245;4.42130175;2023-07-02T10:55:10;20.20;99.90
8780;DHT22;62328;51.19929245;4.42130175;2023-07-02T10:57:40;20.40;99.90
8780;DHT22;62328;51.19929245;4.42130175;2023-07-02T11:00:08;20.50;99.90
8780;DHT22;62328;51.19929245;4.42130175;2023-07-02T11:02:36;20.60;99.90
8780;DHT22;62328;51.19929245;4.42130175;2023-07-02T11:05:04;20.70;99.90
8780;DHT22;62328;51.19929245;4.42130175;2023-07-02T11:07:32;20.70;99.90
8780;DHT22;62328;51.19929245;4.42130175;2023-07-02T11:09:59;20.70;99.90
8780;DHT22;62328;51.19929245;4.42130175;2023-07-02T11:12:30;20.80;99.90
8780;DHT22;62328;51.19929245;4.42130175;2023-07-02T11:15:08;20.70;99.90
8780;DHT22;62328;51.19929245;4.42130175;2023-07-02T11:17:36;20.60;99.90
8780;DHT22;62328;51.19929245;4.42130175;2023-07-02T11:20:07;20.70;99.90
8780;DHT22;62328;51.19929245;4.42130175;2023-07-02T11:22:36;20.80;99.90
8780;DHT22;62328;51.19929245;4.42130175;2023-07-02T11:25:13;20.90;99.90
8780;DHT22;62328;51.19929245;4.42130175;2023-07-02T11:27:42;21.10;99.90
8780;DHT22;62328;51.19929245;4.42130175;2023-07-02T11:30:12;21.40;99.90
8780;DHT22;62328;51.19929245;4.42130175;2023-07-02T11:32:50;21.60;99.90
8780;DHT22;62328;51.19929245;4.42130175;2023-07-02T11:35:19;21.90;99.90
8780;DHT22;62328;51.19929245;4.42130175;2023-07-02T11:37:47;22.00;99.90
8780;DHT22;62328;51.19929245;4.42130175;2023-07-02T11:40:17;21.80;99.90
8780;DHT22;62328;51.19929245;4.42130175;2023-07-02T11:42:45;21.50;99.90
8780;DHT22;62328;51.19929245;4.42130175;2023-07-02T11:45:13;21.40;99.90
8780;DHT22;62328;51.19929245;4.42130175;2023-07-02T11:47:41;21.30;99.90
8780;DHT22;62328;51.19929245;4.42130175;2023-07-02T11:50:08;21.50;99.90
8780;DHT22;62328;51.19929245;4.42130175;2023-07-02T11:52:36;21.50;99.90
8780;DHT22;62328;51.19929245;4.42130175;2023-07-02T11:55:03;21.70;99.90
8780;DHT22;62328;51.19929245;4.42130175;2023-07-02T11:57:31;21.90;99.90
8780;DHT22;62328;51.19929245;4.42130175;2023-07-02T11:59:58;22.00;99.90
8780;DHT22;62328;51.19929245;4.42130175;2023-07-02T12:02:27;22.10;99.90
8780;DHT22;62328;51.19929245;4.42130175;2023-07-02T12:04:56;22.10;99.90
8780;DHT22;62328;51.19929245;4.42130175;2023-07-02T12:07:24;22.30;99.90
8780;DHT22;62328;51.19929245;4.42130175;2023-07-02T12:09:51;22.50;99.90
8780;DHT22;62328;51.19929245;4.42130175;2023-07-02T12:12:19;22.50;99.90
8780;DHT22;62328;51.19929245;4.42130175;2023-07-02T12:14:46;22.60;99.90
8780;DHT22;62328;51.19929245;4.42130175;2023-07-02T12:17:13;22.70;99.90
8780;DHT22;62328;51.19929245;4.42130175;2023-07-02T12:19:42;22.80;99.90
8780;DHT22;62328;51.19929245;4.42130175;2023-07-02T12:22:10;22.80;99.90
8780;DHT22;62328;51.19929245;4.42130175;2023-07-02T12:24:37;22.70;99.90
8780;DHT22;62328;51.19929245;4.42130175;2023-07-02T12:27:05;22.50;99.90
8780;DHT22;62328;51.19929245;4.42130175;2023-07-02T12:29:32;22.30;99.90
8780;DHT22;62328;51.19929245;4.42130175;2023-07-02T12:31:59;22.20;99.90
8780;DHT22;62328;51.19929245;4.42130175;2023-07-02T12:34:26;22.10;99.90
8780;DHT22;62328;51.19929245;4.42130175;2023-07-02T12:36:56;22.10;99.90
8780;DHT22;62328;51.19929245;4.42130175;2023-07-02T12:39:23;22.20;99.90
8780;DHT22;62328;51.19929245;4.42130175;2023-07-02T12:41:51;22.40;99.90
8780;DHT22;62328;51.19929245;4.42130175;2023-07-02T12:44:18;22.70;99.90
8780;DHT22;62328;51.19929245;4.42130175;2023-07-02T12:46:45;22.80;99.90
8780;DHT22;62328;51.19929245;4.42130175;2023-07-02T12:49:12;22.80;99.90
8780;DHT22;62328;51.19929245;4.42130175;2023-07-02T12:51:39;22.70;99.90
8780;DHT22;62328;51.19929245;4.42130175;2023-07-02T12:54:08;23.00;99.90
8780;DHT22;62328;51.19929245;4.42130175;2023-07-02T12:56:35;23.20;99.90
8780;DHT22;62328;51.19929245;4.42130175;2023-07-02T12:59:02;23.50;99.90
8780;DHT22;62328;51.19929245;4.42130175;2023-07-02T13:01:30;23.50;99.90
8780;DHT22;62328;51.19929245;4.42130175;2023-07-02T13:03:57;23.60;99.90
8780;DHT22;62328;51.19929245;4.42130175;2023-07-02T13:06:25;23.70;99.90
8780;DHT22;62328;51.19929245;4.42130175;2023-07-02T13:08:53;23.70;99.90
8780;DHT22;62328;51.19929245;4.42130175;2023-07-02T13:11:22;23.70;99.90
8780;DHT22;62328;51.19929245;4.42130175;2023-07-02T13:13:49;23.70;99.90
8780;DHT22;62328;51.19929245;4.42130175;2023-07-02T13:16:16;23.40;99.90
8780;DHT22;62328;51.19929245;4.42130175;2023-07-02T13:18:43;23.10;99.90
8780;DHT22;62328;51.19929245;4.42130175;2023-07-02T13:21:11;23.10;99.90
8780;DHT22;62328;51.19929245;4.42130175;2023-07-02T13:23:38;23.40;99.90
8780;DHT22;62328;51.19929245;4.42130175;2023-07-02T13:26:06;23.50;99.90
8780;DHT22;62328;51.19929245;4.42130175;2023-07-02T13:28:34;24.00;99.90
8780;DHT22;62328;51.19929245;4.42130175;2023-07-02T13:31:01;24.20;99.90
8780;DHT22;62328;51.19929245;4.42130175;2023-07-02T13:33:29;24.10;99.90
8780;DHT22;62328;51.19929245;4.42130175;2023-07-02T13:35:57;23.90;99.90
8780;DHT22;62328;51.19929245;4.42130175;2023-07-02T13:38:25;23.70;99.90
8780;DHT22;62328;51.19929245;4.42130175;2023-07-02T13:40:52;23.60;99.90